Abington, Indiana
Current Conditions -  °F | °C
As of 11:53 PM on Friday 19 Dec 2014 (Local Time) from KMIE Reporting Station
Haze Haze  
Wind Chill: 29°   Ceiling: 2000
Heat Index: 29°   Visibility: 6mi
Dew Point: 25°   Wind: 0mph
Humidity: 85%   Direction: NA
Pressure: 30.25"   Gusts: NA
Location:  39.7862°N, 85.0229°W
Report Text: KMIE 200453Z AUTO 00000KT 6SM BR OVC020 M02/M04 A3025 RMK AO2 SLP252 T10171039 410061039 $
Loading
Personal Weather Stations






























Interactive Weather Map New forecast layout! Learn more

10-Day Weather Forecast

Advertisements
Track Severe Weather on mobile